This is the latest recevied weather packets stored in our database for station/object DB0OHA-10. If no packets are shown the sender has not sent any weather packets the latest 10 day(s).
| Time | Temp. | Humidity | Pressure | Rain* | Wind** | Luminosity | Snow |
|---|---|---|---|---|---|---|---|
| 1777331723 | 10° C | 56% | 1020.6 hPa | 0 mm | - | 0 W/m² | - |
| 1777330831 | 10.56° C | 57% | 1020.6 hPa | 0 mm | - | 0 W/m² | - |
| 1777330823 | 10.56° C | 57% | 1020.6 hPa | 0 mm | - | 0 W/m² | - |
| 1777329923 | 10.56° C | 57% | 1020.6 hPa | 0 mm | - | 0 W/m² | - |
| 1777329029 | 10.56° C | 57% | 1020.7 hPa | 0 mm | - | 0 W/m² | - |
| 1777329023 | 10.56° C | 57% | 1020.7 hPa | 0 mm | - | 0 W/m² | - |
| 1777328123 | 10.56° C | 57% | 1020.8 hPa | 0 mm | - | 0 W/m² | - |
| 1777327223 | 10.56° C | 58% | 1020.6 hPa | 0 mm | - | 0 W/m² | - |
| 1777326323 | 10.56° C | 58% | 1020.6 hPa | 0 mm | - | 0 W/m² | - |
| 1777325423 | 10.56° C | 60% | 1020.7 hPa | 0 mm | - | 0 W/m² | - |
| 1777324523 | 10.56° C | 60% | 1020.7 hPa | 0 mm | - | 0 W/m² | - |
| 1777323623 | 10.56° C | 61% | 1020.8 hPa | 0 mm | - | 0 W/m² | - |
| 1777322723 | 10.56° C | 62% | 1020.7 hPa | 0 mm | - | 0 W/m² | - |
| 1777321823 | 10.56° C | 63% | 1020.8 hPa | 0 mm | - | 0 W/m² | - |
| 1777320923 | 11.11° C | 62% | 1020.7 hPa | 0 mm | - | 0 W/m² | - |
| 1777320023 | 11.11° C | 62% | 1020.7 hPa | 0 mm | - | 0 W/m² | - |
| 1777319123 | 11.67° C | 61% | 1020.8 hPa | 0 mm | - | 0 W/m² | - |
| 1777318223 | 11.67° C | 61% | 1020.8 hPa | 0 mm | - | 0 W/m² | - |
| 1777317323 | 11.67° C | 61% | 1020.9 hPa | 0 mm | - | 0 W/m² | - |
| 1777316423 | 12.22° C | 61% | 1020.8 hPa | 0 mm | - | 0 W/m² | - |
| 1777315523 | 12.22° C | 61% | 1020.7 hPa | 0 mm | - | 0 W/m² | - |
| 1777314623 | 12.22° C | 61% | 1020.7 hPa | 0 mm | - | 0 W/m² | - |
| 1777313723 | 12.78° C | 57% | 1020.6 hPa | 0 mm | - | 12 W/m² | - |
| 1777312823 | 12.78° C | 57% | 1020.6 hPa | 0 mm | - | 28 W/m² | - |
| 1777311923 | 13.89° C | 55% | 1020.4 hPa | 0 mm | - | 37 W/m² | - |
* Rain latest hour (hover to see other rain measurements)
** Current wind speed in m/s (hover to see current wind gust speed)